KAUM/AUM METAR and TAF weather

Enter ICAO airport designator
Station Type Date Time Source
KAUM METAR 2019/08/22 02:39 UTC NOAA

KAUM 220239Z AUTO 23003KT 10SM CLR 18/12 A3007 RMK AO2


Station Type Date Time Source
KAUM Decoded METAR 2019/08/22 02:39 UTC NOAA

Station name not available
Aug 21, 2019 - 10:39 PM EDT / 2019.08.22 0239 UTC
Wind: from the SW (230 degrees) at 3 MPH (3 KT):0
Visibility: 10 mile(s):0
Sky conditions: clear
Temperature: 64 F (18 C)
Dew Point: 53 F (12 C)
Relative Humidity: 67%
Pressure (altimeter): 30.07 in. Hg (1018 hPa)
ob: KAUM 220239Z AUTO 23003KT 10SM CLR 18/12 A3007 RMK AO2
cycle: 2

Station Type Date Time Source
KAUM TAF UTC NOAA

Error!

Example: see airport list